Time;durP1;ratioP1;P1;durP2;ratioP2;P2;SDS_P1;SDS_P2;PMS_P1;PMS_P2;Temp;Humidity;BMP_temperature;BMP_pressure;BME280_temperature;BME280_humidity;BME280_pressure;Samples;Min_cycle;Max_cycle;Signal;HPM_P1;HPM_P2
2023/08/27 00:00:28;;;;;;;5.30;2.00;;;;;;;21.87;74.36;98633.56;223397;183;138916;-60
2023/08/27 00:05:51;;;;;;;5.00;1.50;;;;;;;21.95;73.93;98590.82;223449;183;137449;-62
2023/08/27 00:10:59;;;;;;;5.60;1.50;;;;;;;21.73;74.24;98563.85;223566;183;146358;-63
2023/08/27 00:16:05;;;;;;;4.60;1.60;;;;;;;21.61;74.31;98545.93;223447;183;139345;-62
2023/08/27 00:21:09;;;;;;;5.50;1.50;;;;;;;21.55;74.98;98531.48;223452;183;137534;-59
2023/08/27 00:26:12;;;;;;;2.60;1.50;;;;;;;21.48;75.22;98538.63;223472;183;146025;-61
2023/08/27 00:31:16;;;;;;;4.60;1.90;;;;;;;21.49;75.77;98545.17;223469;183;138638;-59
2023/08/27 00:36:19;;;;;;;6.20;1.70;;;;;;;21.51;75.91;98559.36;223424;182;137127;-60
2023/08/27 00:41:22;;;;;;;3.20;1.30;;;;;;;21.49;76.00;98539.48;223496;183;146399;-60
2023/08/27 00:46:25;;;;;;;6.40;1.50;;;;;;;21.43;75.95;98524.77;223468;183;139063;-61
2023/08/27 00:51:30;;;;;;;4.10;1.70;;;;;;;21.45;76.78;98517.11;223422;183;136764;-59
2023/08/27 00:56:33;;;;;;;2.70;1.70;;;;;;;21.55;76.61;98532.27;223480;183;145926;-59
2023/08/27 01:01:38;;;;;;;5.10;1.60;;;;;;;21.55;76.26;98520.61;223437;182;139546;-59
2023/08/27 01:06:42;;;;;;;4.10;1.10;;;;;;;21.53;76.52;98536.84;223365;184;140221;-60
2023/08/27 01:12:09;;;;;;;3.50;1.60;;;;;;;21.69;76.23;98574.30;223429;183;146659;-59
2023/08/27 01:17:16;;;;;;;4.20;1.40;;;;;;;21.78;75.79;98634.45;223409;183;139146;-59
2023/08/27 01:22:19;;;;;;;4.90;1.60;;;;;;;21.80;75.46;98630.95;223467;183;137100;-61
2023/08/27 01:27:33;;;;;;;2.30;1.30;;;;;;;21.79;75.65;98614.84;223479;183;145605;-61
2023/08/27 01:32:43;;;;;;;3.90;1.70;;;;;;;21.78;75.90;98575.56;223668;179;140620;-62
2023/08/27 01:37:46;;;;;;;3.80;1.70;;;;;;;21.70;75.90;98540.16;223454;182;138494;-63
2023/08/27 01:42:50;;;;;;;6.00;1.80;;;;;;;21.65;76.48;98522.01;223545;184;145461;-63
2023/08/27 01:47:54;;;;;;;3.50;1.80;;;;;;;21.66;77.14;98506.39;223457;183;138740;-63
2023/08/27 01:52:58;;;;;;;4.00;1.60;;;;;;;21.54;77.52;98467.02;223488;184;137044;-62
2023/08/27 01:58:02;;;;;;;3.00;1.90;;;;;;;21.46;77.94;98460.06;223547;182;151021;-62
2023/08/27 02:08:20;;;;;;;4.20;2.10;;;;;;;21.44;79.20;98425.88;221927;194;666441;-65
2023/08/27 02:13:24;;;;;;;4.80;2.40;;;;;;;21.41;78.99;98433.98;223017;187;137203;-61
2023/08/27 02:18:27;;;;;;;4.00;2.50;;;;;;;21.38;79.32;98451.30;223125;187;143836;-63
2023/08/27 02:23:31;;;;;;;4.00;2.00;;;;;;;21.41;79.51;98434.86;222943;186;139610;-61
2023/08/27 02:28:34;;;;;;;4.60;2.10;;;;;;;21.43;79.52;98442.10;223083;187;137624;-60
2023/08/27 02:33:37;;;;;;;6.00;2.70;;;;;;;21.45;79.49;98437.10;222966;187;143804;-62
2023/08/27 02:38:41;;;;;;;4.90;2.80;;;;;;;21.46;79.62;98398.05;223351;185;138772;-62
2023/08/27 02:43:45;;;;;;;;;;;;;;;21.45;79.74;98391.02;223332;184;137015;-61
2023/08/27 02:48:49;;;;;;;2.70;2.10;;;;;;;21.49;79.93;98425.17;223450;184;145231;-61
2023/08/27 02:53:52;;;;;;;4.30;2.40;;;;;;;21.52;79.89;98436.85;223314;185;139678;-64
2023/08/27 02:58:56;;;;;;;3.30;2.70;;;;;;;21.61;79.65;98430.09;223217;185;137681;-63
2023/08/27 03:04:02;;;;;;;5.20;2.40;;;;;;;21.59;79.46;98406.48;223319;184;146384;-64
2023/08/27 03:09:06;;;;;;;7.70;2.70;;;;;;;21.54;80.19;98383.11;223336;184;140465;-64
2023/08/27 03:14:09;;;;;;;4.20;2.40;;;;;;;21.50;80.43;98379.53;223409;184;139521;-64
2023/08/27 03:19:12;;;;;;;5.80;2.60;;;;;;;21.50;80.82;98390.52;223349;184;146642;-63
2023/08/27 03:24:16;;;;;;;3.80;2.60;;;;;;;21.49;80.91;98386.77;223266;184;139838;-62
2023/08/27 03:29:20;;;;;;;4.50;2.70;;;;;;;21.48;81.08;98383.34;223350;184;137286;-61
2023/08/27 03:34:26;;;;;;;4.10;2.80;;;;;;;21.55;81.14;98388.50;223352;184;146171;-57
2023/08/27 03:39:30;;;;;;;5.30;2.80;;;;;;;21.58;81.00;98399.55;223278;184;138725;-60
2023/08/27 03:44:33;;;;;;;5.70;3.20;;;;;;;21.61;80.73;98398.27;223411;184;138871;-60
2023/08/27 03:49:37;;;;;;;4.70;3.20;;;;;;;21.65;80.41;98390.39;223334;184;146392;-60
2023/08/27 03:54:40;;;;;;;5.00;3.20;;;;;;;21.64;79.98;98371.78;223638;182;138756;-61
2023/08/27 03:59:43;;;;;;;6.20;3.70;;;;;;;21.58;80.08;98364.19;223745;183;140519;-60
2023/08/27 04:04:47;;;;;;;8.00;4.10;;;;;;;21.59;79.96;98369.86;223561;182;146101;-61
2023/08/27 04:09:50;;;;;;;7.00;3.80;;;;;;;21.57;79.65;98366.42;223559;183;139894;-60
2023/08/27 04:14:54;;;;;;;7.00;3.80;;;;;;;21.52;79.59;98360.06;223624;183;137799;-58
2023/08/27 04:19:57;;;;;;;3.80;2.90;;;;;;;21.49;79.47;98377.64;223756;182;145608;-59
2023/08/27 04:25:00;;;;;;;5.30;3.20;;;;;;;21.45;79.80;98398.48;223596;182;232932;-59
2023/08/27 04:30:05;;;;;;;5.20;3.80;;;;;;;21.42;79.91;98404.51;223572;182;136984;-62
2023/08/27 04:35:08;;;;;;;5.60;3.40;;;;;;;21.41;80.14;98409.31;223666;182;147278;-57
2023/08/27 04:40:11;;;;;;;5.70;3.50;;;;;;;21.41;79.96;98408.33;223582;182;139437;-63
2023/08/27 04:45:15;;;;;;;5.20;3.50;;;;;;;21.33;79.99;98401.77;223649;179;136660;-63
2023/08/27 04:50:18;;;;;;;3.80;2.80;;;;;;;21.28;80.26;98401.71;223685;182;145901;-62
2023/08/27 04:55:21;;;;;;;4.70;3.10;;;;;;;21.37;80.05;98406.48;223541;182;138614;-65
2023/08/27 05:00:24;;;;;;;3.90;3.20;;;;;;;21.39;79.84;98405.40;223597;182;138466;-61
2023/08/27 05:05:29;;;;;;;6.20;3.30;;;;;;;21.35;80.03;98411.98;223551;182;145888;-61
2023/08/27 05:10:32;;;;;;;3.10;2.60;;;;;;;21.30;80.19;98416.66;223508;182;138584;-61
2023/08/27 05:15:35;;;;;;;5.10;3.20;;;;;;;21.26;80.43;98429.04;223636;182;139551;-62
2023/08/27 05:20:38;;;;;;;4.70;3.10;;;;;;;21.26;80.82;98426.55;223652;182;146297;-62
2023/08/27 05:25:41;;;;;;;3.50;2.80;;;;;;;21.28;81.03;98414.74;223593;182;139449;-61
2023/08/27 05:30:49;;;;;;;6.60;3.00;;;;;;;21.32;80.78;98404.91;223591;182;138048;-63
2023/08/27 05:35:54;;;;;;;;;;;;;;;21.32;80.79;98403.29;223626;179;146613;-63
2023/08/27 05:40:58;;;;;;;;;;;;;;;21.31;80.85;98400.90;223771;182;138994;-65
2023/08/27 05:46:02;;;;;;;5.30;3.30;;;;;;;21.31;81.16;98404.07;223595;179;129208;-62
2023/08/27 05:51:06;;;;;;;6.50;3.30;;;;;;;21.34;81.26;98410.27;223570;183;145623;-63
2023/08/27 05:56:09;;;;;;;9.00;4.00;;;;;;;21.42;81.49;98418.30;223628;182;138546;-64
2023/08/27 06:01:12;;;;;;;4.30;3.20;;;;;;;21.47;81.55;98407.68;223648;182;138022;-62
2023/08/27 06:06:15;;;;;;;4.70;3.20;;;;;;;21.54;81.70;98420.10;223752;182;149094;-64
2023/08/27 06:11:19;;;;;;;4.30;3.20;;;;;;;21.64;81.75;98414.66;223693;182;140533;-62
2023/08/27 06:16:22;;;;;;;4.70;3.30;;;;;;;21.73;81.71;98411.48;223750;182;136615;-62
2023/08/27 06:21:26;;;;;;;4.00;3.60;;;;;;;21.80;81.81;98414.85;223610;182;145878;-61
2023/08/27 06:26:29;;;;;;;5.50;3.50;;;;;;;21.84;81.66;98416.84;223638;182;138683;-60
2023/08/27 06:31:33;;;;;;;5.00;3.80;;;;;;;21.91;81.81;98415.05;223646;182;137434;-60
2023/08/27 06:36:36;;;;;;;7.00;3.50;;;;;;;22.05;81.94;98412.18;223650;182;146173;-62
2023/08/27 06:41:40;;;;;;;4.70;3.30;;;;;;;22.16;81.57;98409.79;223645;182;139813;-61
2023/08/27 06:46:47;;;;;;;5.10;2.70;;;;;;;22.23;81.63;98405.33;223732;182;139588;-63
2023/08/27 06:51:51;;;;;;;4.00;2.80;;;;;;;22.30;81.19;98391.88;223705;183;146901;-63
2023/08/27 06:56:54;;;;;;;4.10;3.10;;;;;;;22.38;80.65;98391.61;223627;182;138597;-62
2023/08/27 07:01:57;;;;;;;36.80;31.40;;;;;;;22.49;80.65;98392.82;223698;183;137389;-60
2023/08/27 07:07:02;;;;;;;6.20;5.30;;;;;;;22.74;80.13;98388.98;223608;183;145841;-62
2023/08/27 07:12:06;;;;;;;6.00;2.80;;;;;;;22.73;79.95;98394.15;223467;181;139519;-60
2023/08/27 07:17:09;;;;;;;3.60;2.40;;;;;;;22.76;79.83;98390.85;223641;181;137386;-60
2023/08/27 07:22:13;;;;;;;4.30;2.40;;;;;;;22.83;79.20;98385.55;223337;182;146370;-58
2023/08/27 07:27:17;;;;;;;2.60;2.00;;;;;;;22.91;77.92;98384.41;223444;182;139416;-62
2023/08/27 07:32:21;;;;;;;84.70;76.20;;;;;;;22.96;77.79;98394.23;223674;182;137706;-61
2023/08/27 07:37:24;;;;;;;7.60;5.80;;;;;;;23.05;77.81;98387.31;223498;182;146453;-62
2023/08/27 07:42:27;;;;;;;5.00;2.30;;;;;;;23.16;76.59;98382.23;223597;182;138911;-64
2023/08/27 07:47:30;;;;;;;29.60;26.50;;;;;;;23.20;76.30;98379.13;223636;181;137261;-61
2023/08/27 07:52:36;;;;;;;4.00;2.60;;;;;;;23.20;75.72;98385.64;223765;182;145871;-62
2023/08/27 07:57:39;;;;;;;4.50;2.90;;;;;;;23.27;74.61;98389.31;223579;182;140074;-63
2023/08/27 08:02:43;;;;;;;2.60;2.00;;;;;;;23.33;74.23;98385.59;223661;181;136537;-62
2023/08/27 08:07:46;;;;;;;6.60;5.20;;;;;;;23.41;74.28;98383.73;223656;181;145862;-62
2023/08/27 08:12:50;;;;;;;5.80;2.80;;;;;;;23.60;74.28;98377.75;223596;183;141612;-61
2023/08/27 08:17:53;;;;;;;8.30;7.50;;;;;;;23.79;73.13;98384.75;223659;182;136976;-61
2023/08/27 08:22:56;;;;;;;7.80;5.10;;;;;;;23.87;72.57;98386.25;223587;182;146053;-61
2023/08/27 08:27:59;;;;;;;4.10;2.70;;;;;;;23.96;72.75;98375.95;223672;181;139494;-61
2023/08/27 08:33:03;;;;;;;3.30;2.50;;;;;;;24.01;72.11;98363.82;223631;182;137276;-59
2023/08/27 08:38:07;;;;;;;7.10;3.80;;;;;;;24.03;71.90;98355.42;223600;182;144611;-64
2023/08/27 08:43:40;;;;;;;5.60;3.00;;;;;;;24.04;71.65;98355.23;223513;182;139576;-62
2023/08/27 08:48:49;;;;;;;4.60;3.00;;;;;;;24.12;71.74;98347.21;223587;182;137471;-62
2023/08/27 08:53:58;;;;;;;5.80;3.10;;;;;;;24.17;72.55;98344.90;223617;182;146601;-62
2023/08/27 08:59:03;;;;;;;3.60;3.00;;;;;;;24.28;72.56;98343.80;223616;181;139102;-62
2023/08/27 09:04:07;;;;;;;25.20;19.20;;;;;;;24.51;72.70;98333.58;223604;181;138185;-59
2023/08/27 09:09:11;;;;;;;12.40;9.20;;;;;;;24.75;71.76;98329.08;223665;182;147911;-61
2023/08/27 09:14:16;;;;;;;8.20;4.00;;;;;;;24.95;70.07;98318.34;223688;182;139115;-61
2023/08/27 09:19:19;;;;;;;12.40;5.60;;;;;;;25.00;69.45;98315.77;223607;182;137980;-60
2023/08/27 09:24:22;;;;;;;13.40;6.40;;;;;;;25.08;70.10;98315.99;223608;182;147195;-59
2023/08/27 09:29:26;;;;;;;78.10;63.80;;;;;;;25.22;69.71;98317.81;223503;182;139664;-61
2023/08/27 09:34:38;;;;;;;7.30;6.20;;;;;;;25.33;68.22;98317.80;223499;181;137917;-64
2023/08/27 09:39:44;;;;;;;6.80;6.00;;;;;;;25.30;67.26;98318.08;223673;182;145943;-63
2023/08/27 09:44:50;;;;;;;12.20;8.20;;;;;;;25.40;67.87;98303.04;223593;181;139207;-59
2023/08/27 09:49:53;;;;;;;6.30;5.20;;;;;;;25.57;67.62;98294.26;223644;183;136860;-60
2023/08/27 09:54:56;;;;;;;6.00;4.90;;;;;;;25.58;67.34;98290.52;223582;182;145798;-64
2023/08/27 09:59:59;;;;;;;5.30;4.20;;;;;;;25.58;67.49;98295.59;223365;182;139061;-61
2023/08/27 10:05:09;;;;;;;7.20;4.10;;;;;;;25.64;67.49;98303.14;223530;182;138081;-59
2023/08/27 10:10:17;;;;;;;6.00;4.40;;;;;;;25.80;67.39;98298.83;223616;182;145844;-60
2023/08/27 10:15:22;;;;;;;6.50;5.30;;;;;;;26.01;65.79;98291.81;223557;182;138999;-61
2023/08/27 10:20:25;;;;;;;16.20;14.50;;;;;;;26.28;65.28;98285.27;223604;182;137021;-59
2023/08/27 10:25:32;;;;;;;10.10;8.50;;;;;;;26.55;65.58;98277.10;223620;182;145843;-59
2023/08/27 10:30:36;;;;;;;6.70;5.10;;;;;;;26.85;65.02;98268.44;223578;182;138979;-59
2023/08/27 10:35:41;;;;;;;28.80;10.80;;;;;;;27.01;63.85;98260.91;223476;181;137506;-60
2023/08/27 10:40:45;;;;;;;7.10;5.20;;;;;;;27.13;63.85;98257.57;223579;182;149210;-60
2023/08/27 10:45:49;;;;;;;58.00;50.20;;;;;;;27.25;62.96;98259.15;223184;183;139048;-58
2023/08/27 10:51:08;;;;;;;10.80;8.20;;;;;;;27.36;62.12;98258.73;223486;182;138098;-59
2023/08/27 10:56:28;;;;;;;8.10;6.40;;;;;;;27.42;62.01;98249.42;223475;182;150992;-59
2023/08/27 11:01:36;;;;;;;8.80;5.20;;;;;;;27.37;61.57;98244.33;223304;182;139488;-61
2023/08/27 11:06:45;;;;;;;7.00;5.20;;;;;;;27.39;61.51;98247.64;223393;182;137570;-65
2023/08/27 11:11:54;;;;;;;7.20;5.30;;;;;;;27.44;61.35;98243.64;223479;182;147703;-60
2023/08/27 11:17:03;;;;;;;7.70;5.10;;;;;;;27.55;61.28;98238.13;223447;182;138980;-61
2023/08/27 11:22:17;;;;;;;6.20;5.10;;;;;;;27.77;60.93;98235.46;223590;182;139406;-65
2023/08/27 12:26:23;;;;;;;8.30;7.40;;;;;;;28.88;59.32;98185.11;221216;189;666996;-62
2023/08/27 12:31:28;;;;;;;8.30;5.40;;;;;;;28.79;58.62;98184.99;221917;184;136809;-65
2023/08/27 13:26:32;;;;;;;11.10;7.30;;;;;;;30.35;55.34;98148.34;220422;193;666837;-63
2023/08/27 13:31:37;;;;;;;8.40;5.20;;;;;;;30.45;55.10;98144.41;221407;187;137457;-62
2023/08/27 13:36:42;;;;;;;9.80;6.20;;;;;;;30.55;54.70;98140.92;221454;187;144046;-67
2023/08/27 13:41:47;;;;;;;7.30;5.70;;;;;;;30.57;54.22;98144.93;221553;186;138695;-65
2023/08/27 13:46:51;;;;;;;9.00;6.10;;;;;;;30.62;54.11;98139.54;221556;186;137207;-69
2023/08/27 13:51:56;;;;;;;;;;;;;;;30.69;54.02;98142.33;221528;187;146082;-62
2023/08/27 13:57:03;;;;;;;8.80;6.20;;;;;;;30.65;53.64;98138.88;221656;186;140027;-62
2023/08/27 14:02:08;;;;;;;9.90;6.60;;;;;;;30.69;53.70;98132.58;221555;186;137068;-63
2023/08/27 14:07:11;;;;;;;7.20;6.30;;;;;;;30.74;53.26;98121.63;221765;184;143788;-64
2023/08/27 14:12:16;;;;;;;154.10;138.00;;;;;;;30.80;53.77;98126.64;221760;184;139635;-65
2023/08/27 14:17:23;;;;;;;16.10;14.40;;;;;;;30.86;53.45;98132.12;221692;184;138785;-63
2023/08/27 14:22:28;;;;;;;11.80;8.30;;;;;;;30.70;52.99;98127.52;221578;184;145808;-63
2023/08/27 14:27:35;;;;;;;10.10;7.80;;;;;;;30.45;53.38;98127.63;221651;184;138786;-63
2023/08/27 14:32:39;;;;;;;10.30;6.50;;;;;;;30.15;53.81;98124.00;221672;184;139376;-62
2023/08/27 14:37:45;;;;;;;10.30;7.30;;;;;;;29.87;54.48;98121.61;221782;184;145891;-65
2023/08/27 14:42:51;;;;;;;13.80;10.10;;;;;;;29.65;55.08;98120.70;221679;184;138837;-65
2023/08/27 14:47:56;;;;;;;14.60;9.00;;;;;;;29.44;55.86;98123.64;221828;182;137317;-64
2023/08/27 14:53:05;;;;;;;7.80;6.20;;;;;;;29.25;56.62;98132.41;221733;182;148394;-62
2023/08/27 14:58:10;;;;;;;6.70;5.90;;;;;;;29.11;56.88;98125.79;221643;183;138994;-62
2023/08/27 15:03:14;;;;;;;39.30;35.30;;;;;;;29.01;56.91;98119.83;221769;182;137522;-65
2023/08/27 15:08:19;;;;;;;86.10;77.00;;;;;;;28.92;58.16;98119.63;221697;179;146452;-65
2023/08/27 15:13:24;;;;;;;9.10;8.00;;;;;;;28.86;58.64;98113.36;221757;182;138734;-66
2023/08/27 15:18:29;;;;;;;10.00;8.10;;;;;;;28.77;58.28;98112.29;221803;182;137907;-65
2023/08/27 15:23:34;;;;;;;7.30;6.60;;;;;;;28.66;59.50;98113.89;221703;183;145737;-60
2023/08/27 15:28:40;;;;;;;8.10;7.30;;;;;;;28.54;59.80;98106.02;221771;182;138571;-61
2023/08/27 15:33:45;;;;;;;24.10;21.80;;;;;;;28.42;60.70;98110.45;221785;183;138023;-62
2023/08/27 15:38:51;;;;;;;132.70;117.40;;;;;;;28.36;61.32;98114.69;221764;183;145858;-65
2023/08/27 15:43:59;;;;;;;11.80;10.50;;;;;;;28.39;60.79;98115.08;221795;179;140370;-64
2023/08/27 15:49:05;;;;;;;7.40;6.50;;;;;;;28.42;60.89;98116.36;221777;183;137161;-63
2023/08/27 15:54:09;;;;;;;10.50;6.60;;;;;;;28.40;60.86;98118.20;221753;183;145758;-64
2023/08/27 15:59:14;;;;;;;19.60;16.20;;;;;;;28.37;60.19;98120.44;221771;182;139893;-65
2023/08/27 16:04:20;;;;;;;;;;;;;;;28.30;59.85;98123.36;221831;181;137157;-62
2023/08/27 16:09:25;;;;;;;11.80;10.20;;;;;;;28.32;60.37;98133.90;221812;182;146872;-60
2023/08/27 16:14:32;;;;;;;10.30;8.60;;;;;;;28.34;60.94;98144.04;221669;182;138987;-63
2023/08/27 16:19:38;;;;;;;9.60;7.90;;;;;;;28.27;61.37;98139.10;221679;183;138122;-64
2023/08/27 16:24:46;;;;;;;79.30;69.80;;;;;;;28.20;61.76;98129.30;221732;182;146046;-68
2023/08/27 16:29:52;;;;;;;11.00;10.00;;;;;;;28.13;61.87;98125.77;221724;182;140322;-67
2023/08/27 16:34:57;;;;;;;11.10;9.90;;;;;;;28.04;62.04;98118.09;221816;178;140832;-66
2023/08/27 16:40:05;;;;;;;12.00;9.60;;;;;;;27.98;62.28;98120.83;221764;182;147306;-65
2023/08/27 16:45:09;;;;;;;12.80;10.70;;;;;;;27.89;62.36;98127.04;221853;183;138773;-65
2023/08/27 16:50:13;;;;;;;13.60;12.20;;;;;;;27.79;62.67;98129.77;221726;182;138094;-62
2023/08/27 16:55:18;;;;;;;12.40;11.20;;;;;;;27.74;62.82;98131.16;221671;183;145864;-63
2023/08/27 17:00:23;;;;;;;15.40;12.50;;;;;;;27.67;62.70;98124.66;221757;180;139885;-61
2023/08/27 17:05:28;;;;;;;13.40;11.50;;;;;;;27.58;63.00;98125.45;221777;182;137419;-62
2023/08/27 17:10:33;;;;;;;13.50;12.10;;;;;;;27.52;63.12;98126.16;221705;182;147394;-62
2023/08/27 17:15:46;;;;;;;15.10;11.40;;;;;;;27.46;63.61;98121.90;221730;182;139528;-63
2023/08/27 17:20:51;;;;;;;36.10;32.40;;;;;;;27.38;63.60;98127.99;221798;182;138428;-63
2023/08/27 17:25:57;;;;;;;16.80;12.60;;;;;;;27.28;63.71;98129.17;221792;182;145522;-63
2023/08/27 17:31:02;;;;;;;14.30;12.90;;;;;;;27.28;63.76;98130.33;221881;182;140073;-64
2023/08/27 17:36:08;;;;;;;16.00;13.50;;;;;;;27.25;63.57;98124.63;221800;182;137589;-63
2023/08/27 17:41:12;;;;;;;41.40;36.80;;;;;;;27.17;63.65;98118.48;221775;179;145806;-60
2023/08/27 17:46:16;;;;;;;15.10;13.40;;;;;;;27.07;63.87;98124.16;221906;182;138892;-62
2023/08/27 17:51:21;;;;;;;14.90;13.40;;;;;;;27.00;64.17;98126.16;221845;179;139955;-62
2023/08/27 17:56:27;;;;;;;18.50;13.50;;;;;;;26.93;64.36;98130.48;221886;182;145935;-62
2023/08/27 18:01:31;;;;;;;18.90;12.60;;;;;;;26.86;64.91;98131.16;221741;183;138834;-60
2023/08/27 18:06:38;;;;;;;38.10;34.00;;;;;;;26.82;65.08;98138.78;221858;182;141587;-62
2023/08/27 18:11:43;;;;;;;15.80;14.20;;;;;;;26.84;65.17;98149.61;221745;182;147374;-62
2023/08/27 18:16:48;;;;;;;19.70;14.40;;;;;;;26.85;65.15;98149.09;221764;182;140880;-60
2023/08/27 18:21:53;;;;;;;15.20;13.60;;;;;;;26.81;65.25;98149.00;221921;183;137886;-61
2023/08/27 18:26:59;;;;;;;;;;;;;;;26.75;65.93;98147.15;221913;182;146044;-63
2023/08/27 18:32:04;;;;;;;17.60;14.00;;;;;;;26.65;66.20;98149.49;221955;182;138904;-63
2023/08/27 18:37:09;;;;;;;19.50;13.70;;;;;;;26.51;66.55;98150.33;221816;182;138509;-64
2023/08/27 18:42:12;;;;;;;29.00;25.10;;;;;;;26.45;67.13;98146.60;221811;183;147142;-60
2023/08/27 18:47:35;;;;;;;16.80;14.40;;;;;;;26.38;67.46;98150.00;221852;182;139990;-60
2023/08/27 18:52:41;;;;;;;21.40;16.60;;;;;;;26.34;67.60;98152.20;221876;183;138077;-62
2023/08/27 18:57:46;;;;;;;17.50;15.20;;;;;;;26.40;67.48;98148.64;221952;182;146200;-60
2023/08/27 19:02:51;;;;;;;15.70;14.00;;;;;;;26.42;67.23;98149.05;221908;182;140877;-62
2023/08/27 19:07:58;;;;;;;16.20;14.60;;;;;;;26.35;67.42;98151.86;221761;182;137844;-63
2023/08/27 19:13:03;;;;;;;20.10;15.20;;;;;;;26.26;67.89;98157.48;221840;182;146144;-61
2023/08/27 19:18:08;;;;;;;;;;;;;;;26.19;68.84;98159.92;221860;182;140715;-57
2023/08/27 19:23:13;;;;;;;19.00;13.00;;;;;;;26.14;69.16;98159.23;221893;182;131207;-61
2023/08/27 19:28:18;;;;;;;17.80;13.90;;;;;;;26.08;69.25;98156.06;221788;180;145948;-63
2023/08/27 19:33:25;;;;;;;18.00;14.50;;;;;;;26.01;69.65;98158.65;221897;183;139653;-61
2023/08/27 19:38:30;;;;;;;15.10;13.50;;;;;;;26.05;70.19;98147.34;221941;182;138270;-59
2023/08/27 19:43:35;;;;;;;17.40;14.00;;;;;;;26.01;70.17;98148.38;221889;182;146779;-62
2023/08/27 19:48:42;;;;;;;16.20;13.50;;;;;;;25.93;70.30;98151.68;221939;181;139258;-61
2023/08/27 19:53:46;;;;;;;14.90;13.40;;;;;;;25.89;70.59;98145.91;221939;181;138845;-61
2023/08/27 19:58:50;;;;;;;19.30;13.60;;;;;;;25.89;70.74;98150.95;221881;182;145853;-63
2023/08/27 20:03:58;;;;;;;15.60;14.00;;;;;;;25.89;70.83;98146.83;221834;182;138529;-63
2023/08/27 20:09:03;;;;;;;16.60;14.80;;;;;;;25.90;71.14;98151.31;221773;182;138350;-62
2023/08/27 20:14:08;;;;;;;19.20;17.30;;;;;;;25.90;71.03;98149.01;221903;182;146294;-60
2023/08/27 20:19:11;;;;;;;18.90;14.50;;;;;;;25.89;70.99;98144.77;221847;182;138536;-62
2023/08/27 20:24:16;;;;;;;16.40;14.70;;;;;;;25.88;71.04;98145.23;221911;182;138706;-59
2023/08/27 20:29:21;;;;;;;17.10;15.20;;;;;;;25.89;71.09;98144.23;221801;182;145885;-62
2023/08/27 20:34:25;;;;;;;16.80;15.20;;;;;;;25.89;70.92;98144.23;221823;182;140419;-62
2023/08/27 20:39:33;;;;;;;20.90;16.30;;;;;;;25.84;70.53;98147.60;221882;181;138013;-60
2023/08/27 20:44:37;;;;;;;17.90;16.10;;;;;;;25.77;71.02;98148.43;221927;182;145372;-60
2023/08/27 20:49:44;;;;;;;16.10;14.30;;;;;;;25.80;71.19;98153.34;221907;182;140491;-62
2023/08/27 20:54:50;;;;;;;21.00;14.40;;;;;;;25.82;71.08;98150.51;221872;182;138211;-61
2023/08/27 20:59:55;;;;;;;17.40;15.60;;;;;;;25.81;70.84;98155.53;221945;181;145838;-64
2023/08/27 21:05:01;;;;;;;18.70;16.80;;;;;;;25.81;70.92;98152.77;221833;182;138890;-61
2023/08/27 21:10:08;;;;;;;19.80;16.90;;;;;;;25.81;70.78;98148.20;221944;182;137619;-62
2023/08/27 21:15:14;;;;;;;19.00;16.90;;;;;;;25.79;70.98;98139.25;221840;182;145534;-62
2023/08/27 21:20:20;;;;;;;19.60;16.10;;;;;;;25.79;70.93;98136.89;221734;182;138972;-61
2023/08/27 21:25:25;;;;;;;18.00;15.30;;;;;;;25.75;70.82;98143.73;221855;181;138917;-62
2023/08/27 21:30:30;;;;;;;19.10;16.40;;;;;;;25.72;70.82;98146.52;221938;183;146830;-60
2023/08/27 21:35:40;;;;;;;18.50;16.60;;;;;;;25.63;70.31;98145.50;221843;178;140449;-62
2023/08/27 21:40:48;;;;;;;20.00;17.80;;;;;;;25.33;70.19;98139.39;221903;182;137248;-63
2023/08/27 21:45:54;;;;;;;19.50;17.40;;;;;;;25.05;70.90;98137.24;222002;181;146177;-63
2023/08/27 21:51:02;;;;;;;19.90;16.50;;;;;;;24.88;71.44;98132.88;221939;182;140258;-63
2023/08/27 21:56:07;;;;;;;19.80;16.50;;;;;;;24.75;72.13;98123.34;223925;181;154872;-64
2023/08/27 22:01:11;;;;;;;19.30;17.30;;;;;;;24.68;72.53;98119.39;223817;182;147356;-65
2023/08/27 22:06:15;;;;;;;21.70;17.60;;;;;;;24.65;72.72;98114.20;223806;182;138980;-63
2023/08/27 22:11:18;;;;;;;20.10;17.90;;;;;;;24.60;72.94;98115.98;223714;182;137217;-62
2023/08/27 22:16:22;;;;;;;20.10;17.90;;;;;;;24.49;73.12;98114.23;223832;183;148232;-60
2023/08/27 22:25:43;;;;;;;18.70;16.70;;;;;;;24.36;74.25;98131.16;220413;192;666438;-62
2023/08/27 22:30:47;;;;;;;;;;;;;;;24.33;74.32;98131.44;221407;187;137754;-62
2023/08/27 22:35:52;;;;;;;20.60;18.20;;;;;;;24.27;74.57;98139.08;221497;186;144372;-63
2023/08/27 22:40:57;;;;;;;23.20;18.70;;;;;;;24.27;74.84;98132.67;221499;186;139097;-64
2023/08/27 22:46:04;;;;;;;21.40;18.10;;;;;;;24.23;74.68;98131.25;221946;178;137904;-65
2023/08/27 22:51:08;;;;;;;23.70;17.50;;;;;;;24.17;75.03;98134.24;222018;181;144122;-61
2023/08/27 22:56:15;;;;;;;20.70;17.90;;;;;;;24.07;75.27;98143.50;222014;181;138859;-63
2023/08/27 23:01:21;;;;;;;23.50;18.80;;;;;;;23.98;75.35;98148.23;221881;182;137283;-63
2023/08/27 23:06:25;;;;;;;20.50;18.20;;;;;;;23.91;75.97;98160.06;221877;181;144490;-63
2023/08/27 23:11:29;;;;;;;20.90;18.80;;;;;;;23.83;76.14;98179.35;221860;180;138817;-64
2023/08/27 23:16:35;;;;;;;21.20;18.00;;;;;;;23.75;76.54;98180.39;221965;181;137503;-61
2023/08/27 23:21:40;;;;;;;20.80;18.00;;;;;;;23.70;76.72;98165.14;221889;182;145467;-63
2023/08/27 23:26:47;;;;;;;20.20;18.10;;;;;;;23.65;76.70;98175.54;221830;182;139021;-63
2023/08/27 23:31:54;;;;;;;23.70;18.80;;;;;;;23.61;77.01;98176.22;221854;182;137571;-69
2023/08/27 23:36:59;;;;;;;20.80;18.60;;;;;;;23.52;77.24;98178.97;221708;182;146782;-65
2023/08/27 23:42:07;;;;;;;24.20;17.90;;;;;;;23.41;77.42;98189.70;221713;181;140031;-66
2023/08/27 23:47:11;;;;;;;19.40;16.90;;;;;;;23.33;77.81;98204.62;221802;182;137490;-65
2023/08/27 23:52:15;;;;;;;20.00;17.60;;;;;;;23.24;77.98;98215.05;221827;183;145831;-65
2023/08/27 23:57:21;;;;;;;20.30;18.30;;;;;;;23.15;78.24;98212.57;221734;182;138979;-66
